EZY25XH EGKK-LSZH
Flight info
| Callsign | EZY25XH |
|---|---|
| Flight time | N/A |
| Altitude | 29000 |
| Route | ODVIK Y311 DVR UL9 KONAN DCT KOK DCT REMBA DCT RITAX DCT SUTAL DCT GTQ DCT BAMEV DCT BLM |
| Aircraft | A320/M-SDE3FGHIRWY/LB1 |
Departure
| Time | 2026-05-05 16:46 |
|---|---|
| Airport | London Gatwick Airport (EGKK) |
Arrival
| Time | N/A |
|---|---|
| Airport | Zürich Airport (LSZH) |
| Time | Latitude | Longitude | Altitude | Speed | Heading |
|---|---|---|---|---|---|
| 2026-05-05 15:50 | 51.15861 | -0.17938 | 207 ft | 0 kts | 78° |
| 2026-05-05 16:31 | 51.15860 | -0.17943 | 204 ft | 2 kts | 78° |
| 2026-05-05 16:32 | 51.15856 | -0.17972 | 213 ft | 3 kts | 78° |
| 2026-05-05 16:32 | 51.15852 | -0.18003 | 212 ft | 3 kts | 78° |
| 2026-05-05 16:32 | 51.15848 | -0.18033 | 216 ft | 3 kts | 80° |
| 2026-05-05 16:32 | 51.15847 | -0.18063 | 216 ft | 3 kts | 111° |
| 2026-05-05 16:33 | 51.15855 | -0.18082 | 211 ft | 2 kts | 164° |
| 2026-05-05 16:33 | 51.15866 | -0.18086 | 215 ft | 3 kts | 168° |
| 2026-05-05 16:33 | 51.15876 | -0.18090 | 214 ft | 0 kts | 168° |
| 2026-05-05 16:35 | 51.15869 | -0.18087 | 214 ft | 5 kts | 167° |
| 2026-05-05 16:36 | 51.15821 | -0.18071 | 213 ft | 7 kts | 167° |
| 2026-05-05 16:36 | 51.15776 | -0.18055 | 204 ft | 6 kts | 167° |
| 2026-05-05 16:36 | 51.15740 | -0.18042 | 214 ft | 5 kts | 167° |
| 2026-05-05 16:36 | 51.15713 | -0.18038 | 207 ft | 4 kts | 185° |
| 2026-05-05 16:37 | 51.15692 | -0.18061 | 211 ft | 7 kts | 237° |
| 2026-05-05 16:37 | 51.15664 | -0.18216 | 209 ft | 17 kts | 257° |
| 2026-05-05 16:37 | 51.15640 | -0.18394 | 204 ft | 16 kts | 258° |
| 2026-05-05 16:37 | 51.15618 | -0.18559 | 209 ft | 15 kts | 258° |
| 2026-05-05 16:38 | 51.15597 | -0.18710 | 205 ft | 14 kts | 258° |
| 2026-05-05 16:38 | 51.15552 | -0.18822 | 215 ft | 12 kts | 197° |
| 2026-05-05 16:38 | 51.15480 | -0.18807 | 208 ft | 11 kts | 165° |
| 2026-05-05 16:38 | 51.15413 | -0.18780 | 204 ft | 9 kts | 167° |
| 2026-05-05 16:39 | 51.15350 | -0.18758 | 207 ft | 11 kts | 168° |
| 2026-05-05 16:39 | 51.15243 | -0.18721 | 206 ft | 18 kts | 166° |
| 2026-05-05 16:39 | 51.15134 | -0.18741 | 210 ft | 16 kts | 236° |
| 2026-05-05 16:39 | 51.15099 | -0.18946 | 211 ft | 22 kts | 258° |
| 2026-05-05 16:40 | 51.15067 | -0.19187 | 206 ft | 23 kts | 258° |
| 2026-05-05 16:40 | 51.15035 | -0.19426 | 208 ft | 21 kts | 258° |
| 2026-05-05 16:40 | 51.15005 | -0.19643 | 204 ft | 20 kts | 257° |
| 2026-05-05 16:40 | 51.14977 | -0.19848 | 208 ft | 18 kts | 258° |
| 2026-05-05 16:41 | 51.14950 | -0.20043 | 208 ft | 18 kts | 257° |
| 2026-05-05 16:41 | 51.14924 | -0.20225 | 208 ft | 16 kts | 257° |
| 2026-05-05 16:41 | 51.14900 | -0.20393 | 203 ft | 15 kts | 257° |
| 2026-05-05 16:41 | 51.14878 | -0.20551 | 206 ft | 14 kts | 258° |
| 2026-05-05 16:42 | 51.14860 | -0.20696 | 206 ft | 13 kts | 258° |
| 2026-05-05 16:42 | 51.14842 | -0.20828 | 204 ft | 12 kts | 258° |
| 2026-05-05 16:42 | 51.14826 | -0.20946 | 214 ft | 10 kts | 256° |
| 2026-05-05 16:42 | 51.14806 | -0.21079 | 208 ft | 15 kts | 256° |
| 2026-05-05 16:43 | 51.14779 | -0.21228 | 209 ft | 14 kts | 255° |
| 2026-05-05 16:43 | 51.14756 | -0.21362 | 204 ft | 11 kts | 245° |
| 2026-05-05 16:43 | 51.14700 | -0.21406 | 205 ft | 8 kts | 176° |
| 2026-05-05 16:43 | 51.14676 | -0.21358 | 206 ft | 5 kts | 132° |
| 2026-05-05 16:44 | 51.14654 | -0.21332 | 208 ft | 3 kts | 164° |
| 2026-05-05 16:44 | 51.14632 | -0.21327 | 206 ft | 3 kts | 171° |
| 2026-05-05 16:44 | 51.14587 | -0.21315 | 214 ft | 8 kts | 167° |
| 2026-05-05 16:44 | 51.14539 | -0.21270 | 205 ft | 9 kts | 132° |
| 2026-05-05 16:45 | 51.14519 | -0.21208 | 208 ft | 10 kts | 103° |
| 2026-05-05 16:45 | 51.14530 | -0.21100 | 209 ft | 10 kts | 72° |
| 2026-05-05 16:45 | 51.14546 | -0.20982 | 207 ft | 16 kts | 78° |
| 2026-05-05 16:45 | 51.14623 | -0.20414 | 205 ft | 90 kts | 77° |
| 2026-05-05 16:46 | 51.14800 | -0.19120 | 216 ft | 147 kts | 78° |
| 2026-05-05 16:46 | 51.15018 | -0.17496 | 861 ft | 151 kts | 77° |
| 2026-05-05 16:46 | 51.15246 | -0.15840 | 1632 ft | 160 kts | 76° |
| 2026-05-05 16:46 | 51.15504 | -0.13984 | 2152 ft | 183 kts | 75° |
| 2026-05-05 16:47 | 51.15795 | -0.11893 | 2543 ft | 206 kts | 75° |
| 2026-05-05 16:47 | 51.16121 | -0.09534 | 3033 ft | 230 kts | 76° |
| 2026-05-05 16:47 | 51.16481 | -0.06924 | 3690 ft | 249 kts | 76° |
| 2026-05-05 16:47 | 51.16844 | -0.04179 | 4633 ft | 257 kts | 80° |
| 2026-05-05 16:48 | 51.16867 | -0.01290 | 5585 ft | 264 kts | 90° |
| 2026-05-05 16:48 | 51.16811 | 0.01664 | 6622 ft | 270 kts | 88° |
| 2026-05-05 16:48 | 51.16755 | 0.04690 | 7551 ft | 276 kts | 89° |
| 2026-05-05 16:48 | 51.16695 | 0.07765 | 8496 ft | 280 kts | 90° |
| 2026-05-05 16:49 | 51.16633 | 0.10901 | 9442 ft | 286 kts | 90° |
| 2026-05-05 16:49 | 51.16574 | 0.14038 | 10323 ft | 291 kts | 90° |
| 2026-05-05 16:49 | 51.16523 | 0.17329 | 11246 ft | 293 kts | 90° |
| 2026-05-05 16:49 | 51.16518 | 0.20590 | 12185 ft | 295 kts | 89° |
| 2026-05-05 16:50 | 51.16533 | 0.23866 | 13143 ft | 295 kts | 89° |
| 2026-05-05 16:50 | 51.16552 | 0.27149 | 14057 ft | 298 kts | 89° |
| 2026-05-05 16:50 | 51.16569 | 0.30467 | 14804 ft | 302 kts | 88° |
| 2026-05-05 16:50 | 51.16581 | 0.33833 | 15545 ft | 305 kts | 89° |
| 2026-05-05 16:51 | 51.16588 | 0.37231 | 16288 ft | 310 kts | 89° |
| 2026-05-05 16:51 | 51.16590 | 0.40686 | 16985 ft | 315 kts | 89° |
| 2026-05-05 16:51 | 51.16589 | 0.44196 | 17707 ft | 319 kts | 89° |
| 2026-05-05 16:51 | 51.16590 | 0.47753 | 18435 ft | 323 kts | 89° |
| 2026-05-05 16:52 | 51.16592 | 0.51400 | 18754 ft | 339 kts | 89° |
| 2026-05-05 16:52 | 51.16595 | 0.55271 | 18897 ft | 359 kts | 89° |
| 2026-05-05 16:52 | 51.16596 | 0.59302 | 19316 ft | 368 kts | 89° |
| 2026-05-05 16:52 | 51.16593 | 0.63400 | 19863 ft | 372 kts | 90° |
| 2026-05-05 16:53 | 51.16587 | 0.67528 | 20438 ft | 376 kts | 89° |
| 2026-05-05 16:53 | 51.16578 | 0.71724 | 21012 ft | 379 kts | 90° |
| 2026-05-05 16:53 | 51.16567 | 0.75949 | 21571 ft | 383 kts | 90° |
| 2026-05-05 16:53 | 51.16557 | 0.80201 | 22140 ft | 386 kts | 90° |
| 2026-05-05 16:54 | 51.16546 | 0.84505 | 22678 ft | 390 kts | 90° |
| 2026-05-05 16:54 | 51.16533 | 0.88838 | 23216 ft | 393 kts | 90° |
| 2026-05-05 16:54 | 51.16515 | 0.93214 | 23759 ft | 397 kts | 90° |
| 2026-05-05 16:54 | 51.16493 | 0.97639 | 24238 ft | 402 kts | 92° |
| 2026-05-05 16:55 | 51.16470 | 1.02119 | 24691 ft | 407 kts | 91° |
| 2026-05-05 16:55 | 51.16447 | 1.06644 | 25144 ft | 411 kts | 92° |
| 2026-05-05 16:55 | 51.16424 | 1.11209 | 25618 ft | 413 kts | 91° |
| 2026-05-05 16:55 | 51.16399 | 1.15779 | 26105 ft | 414 kts | 92° |
| 2026-05-05 16:56 | 51.16372 | 1.20385 | 26546 ft | 417 kts | 93° |
| 2026-05-05 16:56 | 51.16342 | 1.24939 | 27007 ft | 418 kts | 92° |
| 2026-05-05 16:56 | 51.16309 | 1.29580 | 27459 ft | 420 kts | 93° |
| 2026-05-05 16:56 | 51.16274 | 1.34304 | 27897 ft | 422 kts | 93° |
| 2026-05-05 16:57 | 51.16199 | 1.38920 | 28331 ft | 423 kts | 94° |
| 2026-05-05 16:57 | 51.16028 | 1.43610 | 28749 ft | 425 kts | 97° |
| 2026-05-05 16:57 | 51.15790 | 1.48337 | 28908 ft | 433 kts | 97° |
| 2026-05-05 16:57 | 51.15514 | 1.53163 | 28932 ft | 443 kts | 97° |
| 2026-05-05 16:58 | 51.14964 | 1.62785 | 28936 ft | 434 kts | 97° |
| 2026-05-05 16:58 | 51.14709 | 1.67623 | 29198 ft | 439 kts | 97° |
| 2026-05-05 16:58 | 51.14466 | 1.72477 | 29655 ft | 440 kts | 97° |
| 2026-05-05 16:59 | 51.14229 | 1.77326 | 30138 ft | 439 kts | 97° |
| 2026-05-05 16:59 | 51.13991 | 1.82171 | 30576 ft | 438 kts | 97° |
| 2026-05-05 16:59 | 51.13749 | 1.86993 | 31014 ft | 437 kts | 97° |
| 2026-05-05 16:59 | 51.13502 | 1.91807 | 31438 ft | 436 kts | 97° |
| 2026-05-05 17:00 | 51.13252 | 1.96616 | 31880 ft | 434 kts | 98° |
| 2026-05-05 17:00 | 51.13001 | 2.01398 | 32316 ft | 433 kts | 97° |
| 2026-05-05 17:00 | 51.12748 | 2.06178 | 32757 ft | 433 kts | 96° |
| 2026-05-05 17:00 | 51.12496 | 2.10943 | 33191 ft | 432 kts | 96° |
| 2026-05-05 17:01 | 51.12241 | 2.15699 | 33630 ft | 431 kts | 97° |
| 2026-05-05 17:01 | 51.11987 | 2.20445 | 34040 ft | 430 kts | 96° |
| 2026-05-05 17:01 | 51.11731 | 2.25186 | 34370 ft | 430 kts | 98° |
| 2026-05-05 17:01 | 51.11470 | 2.29929 | 34665 ft | 430 kts | 96° |
| 2026-05-05 17:02 | 51.11206 | 2.34676 | 34953 ft | 431 kts | 98° |
| 2026-05-05 17:02 | 51.10940 | 2.39433 | 35243 ft | 431 kts | 98° |
| 2026-05-05 17:02 | 51.10675 | 2.44174 | 35569 ft | 431 kts | 98° |
| 2026-05-05 17:02 | 51.10408 | 2.48928 | 35853 ft | 431 kts | 97° |
| 2026-05-05 17:03 | 51.10134 | 2.53746 | 36128 ft | 432 kts | 98° |
| 2026-05-05 17:03 | 51.09862 | 2.58499 | 36392 ft | 432 kts | 97° |
| 2026-05-05 17:03 | 51.09578 | 2.63266 | 36636 ft | 433 kts | 99° |
| 2026-05-05 17:03 | 51.08988 | 2.67935 | 36851 ft | 431 kts | 108° |
| 2026-05-05 17:04 | 51.07322 | 2.77105 | 36904 ft | 432 kts | 109° |
| 2026-05-05 17:04 | 51.05651 | 2.86265 | 36909 ft | 431 kts | 109° |
| 2026-05-05 17:05 | 51.03986 | 2.95410 | 36920 ft | 431 kts | 109° |
| 2026-05-05 17:05 | 51.02329 | 3.04493 | 36915 ft | 431 kts | 109° |
| 2026-05-05 17:06 | 51.00647 | 3.13620 | 36893 ft | 430 kts | 109° |
| 2026-05-05 17:06 | 50.98955 | 3.22733 | 36885 ft | 430 kts | 109° |
| 2026-05-05 17:07 | 50.97264 | 3.31841 | 36875 ft | 430 kts | 109° |
| 2026-05-05 17:07 | 50.95565 | 3.40936 | 36876 ft | 430 kts | 109° |
| 2026-05-05 17:08 | 50.93857 | 3.50019 | 36879 ft | 430 kts | 109° |
| 2026-05-05 17:08 | 50.92145 | 3.59093 | 36876 ft | 430 kts | 109° |
| 2026-05-05 17:09 | 50.90423 | 3.68180 | 36877 ft | 430 kts | 109° |
| 2026-05-05 17:09 | 50.88696 | 3.77245 | 36870 ft | 430 kts | 110° |
| 2026-05-05 17:10 | 50.86957 | 3.86302 | 36875 ft | 430 kts | 110° |
| 2026-05-05 17:10 | 50.85216 | 3.95347 | 36883 ft | 429 kts | 110° |
| 2026-05-05 17:11 | 50.83471 | 4.04381 | 36885 ft | 429 kts | 110° |
| 2026-05-05 17:11 | 50.81720 | 4.13409 | 36891 ft | 429 kts | 110° |
| 2026-05-05 17:12 | 50.79965 | 4.22419 | 36885 ft | 429 kts | 110° |
| 2026-05-05 17:12 | 50.78198 | 4.31406 | 36894 ft | 428 kts | 110° |
| 2026-05-05 17:13 | 50.76428 | 4.40382 | 36899 ft | 427 kts | 110° |
| 2026-05-05 17:13 | 50.74654 | 4.49339 | 36901 ft | 427 kts | 110° |
| 2026-05-05 17:14 | 50.72876 | 4.58278 | 36899 ft | 427 kts | 110° |
| 2026-05-05 17:14 | 50.71094 | 4.67200 | 36887 ft | 427 kts | 110° |
| 2026-05-05 17:15 | 50.69354 | 4.75908 | 36885 ft | 426 kts | 110° |
| 2026-05-05 17:15 | 50.67562 | 4.84790 | 36880 ft | 425 kts | 111° |
| 2026-05-05 17:16 | 50.64941 | 4.92914 | 36871 ft | 418 kts | 130° |
| 2026-05-05 17:16 | 50.60987 | 4.99520 | 36869 ft | 415 kts | 137° |
| 2026-05-05 17:17 | 50.56871 | 5.05899 | 36858 ft | 415 kts | 137° |
| 2026-05-05 17:17 | 50.52763 | 5.12257 | 36845 ft | 415 kts | 137° |
| 2026-05-05 17:18 | 50.48646 | 5.18600 | 36850 ft | 415 kts | 138° |
| 2026-05-05 17:18 | 50.44525 | 5.24928 | 36850 ft | 414 kts | 138° |
| 2026-05-05 17:19 | 50.40402 | 5.31246 | 36854 ft | 414 kts | 138° |
| 2026-05-05 17:19 | 50.36305 | 5.37511 | 36849 ft | 414 kts | 138° |
| 2026-05-05 17:20 | 50.32174 | 5.43798 | 36850 ft | 414 kts | 138° |
| 2026-05-05 17:20 | 50.28015 | 5.50133 | 36856 ft | 414 kts | 137° |
| 2026-05-05 17:21 | 50.23912 | 5.56361 | 36843 ft | 414 kts | 138° |
| 2026-05-05 17:22 | 50.17712 | 5.65736 | 36849 ft | 414 kts | 138° |
| 2026-05-05 17:22 | 50.13581 | 5.71966 | 36846 ft | 413 kts | 138° |
| 2026-05-05 17:23 | 50.09453 | 5.78184 | 36836 ft | 413 kts | 138° |
| 2026-05-05 17:23 | 50.04893 | 5.83503 | 36840 ft | 410 kts | 149° |
| 2026-05-05 17:24 | 50.00048 | 5.88178 | 36824 ft | 410 kts | 149° |
| 2026-05-05 17:24 | 49.95209 | 5.92866 | 36806 ft | 410 kts | 149° |
| 2026-05-05 17:25 | 49.90357 | 5.97551 | 36812 ft | 411 kts | 149° |
| 2026-05-05 17:25 | 49.85497 | 6.02213 | 36817 ft | 411 kts | 149° |
| 2026-05-05 17:26 | 49.80634 | 6.06886 | 36826 ft | 412 kts | 149° |
| 2026-05-05 17:26 | 49.75756 | 6.11564 | 36827 ft | 413 kts | 149° |
| 2026-05-05 17:27 | 49.70866 | 6.16223 | 36824 ft | 413 kts | 149° |
| 2026-05-05 17:27 | 49.65975 | 6.20881 | 36828 ft | 413 kts | 149° |
| 2026-05-05 17:28 | 49.61079 | 6.25530 | 36833 ft | 413 kts | 149° |
| 2026-05-05 17:28 | 49.56180 | 6.30179 | 36818 ft | 413 kts | 150° |
| 2026-05-05 17:29 | 49.52106 | 6.34030 | 36821 ft | 414 kts | 150° |
| 2026-05-05 17:29 | 49.47197 | 6.38649 | 36821 ft | 413 kts | 152° |
| 2026-05-05 17:30 | 49.41992 | 6.42347 | 36821 ft | 412 kts | 157° |
| 2026-05-05 17:30 | 49.36747 | 6.45917 | 36831 ft | 413 kts | 157° |
| 2026-05-05 17:31 | 49.31496 | 6.49487 | 36832 ft | 413 kts | 157° |
| 2026-05-05 17:31 | 49.26245 | 6.53044 | 36825 ft | 413 kts | 158° |
| 2026-05-05 17:32 | 49.20990 | 6.56588 | 36828 ft | 413 kts | 158° |
| 2026-05-05 17:32 | 49.15737 | 6.60131 | 36828 ft | 413 kts | 158° |
| 2026-05-05 17:33 | 49.10483 | 6.63673 | 36809 ft | 413 kts | 158° |
| 2026-05-05 17:33 | 49.05229 | 6.67200 | 36819 ft | 413 kts | 158° |
| 2026-05-05 17:34 | 48.99970 | 6.70721 | 36825 ft | 413 kts | 158° |
| 2026-05-05 17:34 | 48.94696 | 6.74104 | 36827 ft | 413 kts | 160° |
| 2026-05-05 17:35 | 48.89333 | 6.77234 | 36835 ft | 413 kts | 161° |
| 2026-05-05 17:35 | 48.83964 | 6.80333 | 36842 ft | 413 kts | 161° |
| 2026-05-05 17:36 | 48.78602 | 6.83479 | 36846 ft | 413 kts | 160° |
| 2026-05-05 17:36 | 48.73246 | 6.86644 | 36845 ft | 413 kts | 160° |
| 2026-05-05 17:37 | 48.67896 | 6.89802 | 36843 ft | 413 kts | 160° |
| 2026-05-05 17:37 | 48.62548 | 6.92949 | 36841 ft | 412 kts | 161° |
| 2026-05-05 17:38 | 48.57193 | 6.96081 | 36831 ft | 412 kts | 161° |
| 2026-05-05 17:38 | 48.51845 | 6.99202 | 36841 ft | 412 kts | 161° |
| 2026-05-05 17:39 | 48.46488 | 7.02326 | 36589 ft | 415 kts | 161° |
| 2026-05-05 17:39 | 48.43757 | 7.03911 | 35297 ft | 429 kts | 160° |
| 2026-05-05 17:39 | 48.40954 | 7.05537 | 34615 ft | 429 kts | 160° |
| 2026-05-05 17:39 | 48.38202 | 7.07139 | 34295 ft | 420 kts | 160° |
| 2026-05-05 17:40 | 48.35494 | 7.08712 | 33768 ft | 416 kts | 160° |
| 2026-05-05 17:40 | 48.32809 | 7.10267 | 33215 ft | 411 kts | 160° |
| 2026-05-05 17:40 | 48.30158 | 7.11800 | 32720 ft | 405 kts | 160° |
| 2026-05-05 17:40 | 48.27547 | 7.13308 | 32214 ft | 400 kts | 160° |
| 2026-05-05 17:41 | 48.24968 | 7.14797 | 31736 ft | 395 kts | 160° |
| 2026-05-05 17:41 | 48.22422 | 7.16266 | 31269 ft | 390 kts | 159° |
| 2026-05-05 17:41 | 48.19905 | 7.17715 | 30800 ft | 385 kts | 160° |
| 2026-05-05 17:41 | 48.17417 | 7.19145 | 30346 ft | 381 kts | 160° |
| 2026-05-05 17:42 | 48.14956 | 7.20560 | 29903 ft | 377 kts | 160° |
| 2026-05-05 17:42 | 48.12527 | 7.21957 | 29439 ft | 372 kts | 160° |
| 2026-05-05 17:42 | 48.10133 | 7.23332 | 29016 ft | 365 kts | 160° |
| 2026-05-05 17:42 | 48.07777 | 7.24682 | 28606 ft | 360 kts | 160° |
| 2026-05-05 17:43 | 48.05462 | 7.26008 | 28209 ft | 353 kts | 160° |
| 2026-05-05 17:43 | 48.03184 | 7.27312 | 27826 ft | 348 kts | 160° |
| 2026-05-05 17:43 | 48.00944 | 7.28596 | 27435 ft | 343 kts | 160° |
| 2026-05-05 17:43 | 47.98761 | 7.29847 | 27049 ft | 339 kts | 161° |
| 2026-05-05 17:44 | 47.96575 | 7.31093 | 26643 ft | 334 kts | 161° |
| 2026-05-05 17:44 | 47.94411 | 7.32324 | 26251 ft | 331 kts | 161° |
| 2026-05-05 17:44 | 47.92270 | 7.33542 | 25856 ft | 328 kts | 161° |
| 2026-05-05 17:44 | 47.90148 | 7.34747 | 25456 ft | 325 kts | 161° |
| 2026-05-05 17:45 | 47.88046 | 7.35940 | 25050 ft | 323 kts | 161° |
| 2026-05-05 17:45 | 47.85954 | 7.37128 | 24634 ft | 321 kts | 161° |
| 2026-05-05 17:45 | 47.83873 | 7.38309 | 24184 ft | 320 kts | 161° |
| 2026-05-05 17:45 | 47.81801 | 7.39484 | 23748 ft | 319 kts | 161° |
| 2026-05-05 17:46 | 47.79726 | 7.40661 | 23277 ft | 319 kts | 161° |
| 2026-05-05 17:46 | 47.77657 | 7.41832 | 22794 ft | 317 kts | 161° |
| 2026-05-05 17:46 | 47.75610 | 7.42991 | 22359 ft | 314 kts | 161° |
| 2026-05-05 17:46 | 47.73568 | 7.44146 | 21932 ft | 312 kts | 161° |
| 2026-05-05 17:47 | 47.71543 | 7.45284 | 21511 ft | 311 kts | 161° |
| 2026-05-05 17:47 | 47.69536 | 7.46462 | 20944 ft | 312 kts | 155° |
| 2026-05-05 17:47 | 47.67794 | 7.48408 | 20095 ft | 320 kts | 134° |
| 2026-05-05 17:47 | 47.66656 | 7.51275 | 19312 ft | 329 kts | 110° |
| 2026-05-05 17:48 | 47.66374 | 7.54667 | 18995 ft | 338 kts | 90° |
| 2026-05-05 17:48 | 47.66490 | 7.58177 | 18789 ft | 342 kts | 90° |
| 2026-05-05 17:48 | 47.66613 | 7.61728 | 17730 ft | 351 kts | 90° |
| 2026-05-05 17:48 | 47.66743 | 7.65392 | 16626 ft | 357 kts | 89° |
| 2026-05-05 17:49 | 47.66878 | 7.69061 | 15752 ft | 356 kts | 89° |
| 2026-05-05 17:49 | 47.67013 | 7.72707 | 14957 ft | 353 kts | 89° |
| 2026-05-05 17:49 | 47.67145 | 7.76330 | 14184 ft | 350 kts | 89° |
| 2026-05-05 17:49 | 47.67273 | 7.79915 | 13391 ft | 346 kts | 90° |
| 2026-05-05 17:50 | 47.67396 | 7.83459 | 12697 ft | 339 kts | 90° |
| 2026-05-05 17:50 | 47.67515 | 7.86879 | 12305 ft | 325 kts | 90° |
| 2026-05-05 17:50 | 47.67628 | 7.90208 | 11908 ft | 324 kts | 90° |
| 2026-05-05 17:50 | 47.67738 | 7.93545 | 11503 ft | 324 kts | 90° |
| 2026-05-05 17:51 | 47.67845 | 7.96871 | 11096 ft | 322 kts | 90° |
| 2026-05-05 17:51 | 47.67954 | 8.00187 | 10688 ft | 321 kts | 90° |
| 2026-05-05 17:51 | 47.68064 | 8.03460 | 10272 ft | 311 kts | 90° |
| 2026-05-05 17:51 | 47.68169 | 8.06606 | 9871 ft | 299 kts | 91° |
| 2026-05-05 17:52 | 47.68267 | 8.09672 | 9452 ft | 298 kts | 91° |
| 2026-05-05 17:52 | 47.68359 | 8.12739 | 9050 ft | 298 kts | 91° |
| 2026-05-05 17:52 | 47.68455 | 8.15784 | 8626 ft | 289 kts | 90° |
| 2026-05-05 17:52 | 47.68552 | 8.18706 | 8232 ft | 279 kts | 90° |
| 2026-05-05 17:53 | 47.68645 | 8.21536 | 7835 ft | 270 kts | 91° |
| 2026-05-05 17:53 | 47.68485 | 8.24267 | 7235 ft | 265 kts | 111° |
| 2026-05-05 17:53 | 47.67685 | 8.26679 | 6660 ft | 258 kts | 133° |
| 2026-05-05 17:53 | 47.66464 | 8.28530 | 6311 ft | 246 kts | 142° |
| 2026-05-05 17:54 | 47.65237 | 8.30226 | 5970 ft | 236 kts | 142° |
| 2026-05-05 17:54 | 47.64058 | 8.31855 | 5661 ft | 228 kts | 142° |
| 2026-05-05 17:54 | 47.62915 | 8.33430 | 5353 ft | 221 kts | 142° |
| 2026-05-05 17:54 | 47.61821 | 8.34936 | 5069 ft | 215 kts | 142° |
| 2026-05-05 17:55 | 47.60778 | 8.36370 | 4798 ft | 212 kts | 142° |
| 2026-05-05 17:55 | 47.59687 | 8.37871 | 4521 ft | 205 kts | 142° |
| 2026-05-05 17:55 | 47.58654 | 8.39292 | 4260 ft | 202 kts | 142° |
| 2026-05-05 17:55 | 47.57631 | 8.40695 | 3985 ft | 200 kts | 142° |
| 2026-05-05 17:56 | 47.56617 | 8.42088 | 3710 ft | 199 kts | 142° |
| 2026-05-05 17:56 | 47.55646 | 8.43422 | 3452 ft | 197 kts | 141° |
| 2026-05-05 17:56 | 47.54682 | 8.44744 | 3205 ft | 184 kts | 141° |
| 2026-05-05 17:56 | 47.53832 | 8.45916 | 2974 ft | 165 kts | 139° |
| 2026-05-05 17:57 | 47.53027 | 8.47019 | 2797 ft | 150 kts | 141° |
| 2026-05-05 17:57 | 47.52280 | 8.48039 | 2578 ft | 142 kts | 141° |
| 2026-05-05 17:57 | 47.51561 | 8.49017 | 2379 ft | 138 kts | 140° |